Time;durP1;ratioP1;P1;durP2;ratioP2;P2;SDS_P1;SDS_P2;PMS_P1;PMS_P2;Temp;Humidity;BMP_temperature;BMP_pressure;BME280_temperature;BME280_humidity;BME280_pressure;Samples;Min_cycle;Max_cycle;Signal;HPM_P1;HPM_P2
2023/05/07 00:02:22;;;;;;;8.37;7.60;;;;;;;;;;5014221;28;20453;-71
2023/05/07 00:04:50;;;;;;;7.13;6.53;;;;;;;;;;5014517;28;20446;-71
2023/05/07 00:07:17;;;;;;;7.20;6.50;;;;;;;;;;5014091;28;20455;-71
2023/05/07 00:09:44;;;;;;;9.37;7.63;;;;;;;;;;5013974;28;20460;-72
2023/05/07 00:12:13;;;;;;;7.10;6.50;;;;;;;;;;5014073;28;20934;-71
2023/05/07 00:14:40;;;;;;;8.23;7.27;;;;;;;;;;5014285;28;20441;-71
2023/05/07 00:17:07;;;;;;;7.47;6.87;;;;;;;;;;5014349;28;20445;-71
2023/05/07 00:19:34;;;;;;;8.30;7.50;;;;;;;;;;5014125;28;20484;-72
2023/05/07 00:22:01;;;;;;;8.87;8.07;;;;;;;;;;5014304;28;20453;-71
2023/05/07 00:24:28;;;;;;;8.37;7.57;;;;;;;;;;5014144;28;20439;-72
2023/05/07 00:26:57;;;;;;;7.57;6.87;;;;;;;;;;5013912;28;20450;-71
2023/05/07 00:29:26;;;;;;;8.97;6.73;;;;;;;;;;5014102;28;20458;-72
2023/05/07 00:31:54;;;;;;;9.93;8.97;;;;;;;;;;5013771;28;20448;-71
2023/05/07 00:34:22;;;;;;;8.73;7.63;;;;;;;;;;5013997;28;20453;-72
2023/05/07 00:36:49;;;;;;;8.23;7.40;;;;;;;;;;5013789;28;20543;-71
2023/05/07 00:39:16;;;;;;;8.50;7.70;;;;;;;;;;5013548;28;20463;-72
2023/05/07 00:41:43;;;;;;;8.07;7.37;;;;;;;;;;5013691;28;20449;-71
2023/05/07 00:44:10;;;;;;;8.50;7.70;;;;;;;;;;5013550;28;20454;-71
2023/05/07 00:46:39;;;;;;;7.60;6.80;;;;;;;;;;5013944;28;20793;-72
2023/05/07 00:49:07;;;;;;;8.77;7.87;;;;;;;;;;5013829;28;20444;-71
2023/05/07 00:51:34;;;;;;;9.40;8.50;;;;;;;;;;5013736;28;20450;-71
2023/05/07 00:54:02;;;;;;;8.50;7.70;;;;;;;;;;5013500;28;20450;-71
2023/05/07 00:56:30;;;;;;;7.67;6.97;;;;;;;;;;5013684;28;20796;-71
2023/05/07 00:58:57;;;;;;;8.80;7.60;;;;;;;;;;5013868;28;20483;-71
2023/05/07 01:01:24;;;;;;;8.23;7.37;;;;;;;;;;5013582;28;20446;-72
2023/05/07 01:03:53;;;;;;;9.50;8.13;;;;;;;;;;5014202;28;20540;-71
2023/05/07 01:06:21;;;;;;;8.50;7.80;;;;;;;;;;5013710;28;20457;-72
2023/05/07 01:08:49;;;;;;;12.70;9.20;;;;;;;;;;5013942;28;20487;-72
2023/05/07 01:11:16;;;;;;;10.70;9.70;;;;;;;;;;5013513;28;20449;-72
2023/05/07 01:13:44;;;;;;;11.20;9.57;;;;;;;;;;5013618;28;20480;-71
2023/05/07 01:16:11;;;;;;;10.60;9.50;;;;;;;;;;5013490;28;20457;-72
2023/05/07 01:18:39;;;;;;;12.53;10.07;;;;;;;;;;5013386;28;20487;-72
2023/05/07 01:21:09;;;;;;;11.77;10.57;;;;;;;;;;5013213;28;20460;-72
2023/05/07 01:23:37;;;;;;;11.50;10.50;;;;;;;;;;5013268;28;20541;-72
2023/05/07 01:26:04;;;;;;;13.10;11.80;;;;;;;;;;5013135;28;20912;-72
2023/05/07 01:28:32;;;;;;;14.37;12.13;;;;;;;;;;5013244;28;20986;-71
2023/05/07 01:31:02;;;;;;;14.83;12.90;;;;;;;;;;5013094;28;20955;-72
2023/05/07 01:33:31;;;;;;;13.73;12.40;;;;;;;;;;5013638;28;20837;-72
2023/05/07 01:36:00;;;;;;;16.97;13.20;;;;;;;;;;5013119;28;20961;-72
2023/05/07 01:38:27;;;;;;;13.73;11.70;;;;;;;;;;5013220;28;20525;-71
2023/05/07 01:40:57;;;;;;;15.10;13.60;;;;;;;;;;5013302;28;20453;-72
2023/05/07 01:43:25;;;;;;;16.17;14.47;;;;;;;;;;5013500;28;20470;-71
2023/05/07 01:45:53;;;;;;;15.13;13.50;;;;;;;;;;5012952;28;20461;-72
2023/05/07 01:48:20;;;;;;;16.87;14.13;;;;;;;;;;5013328;28;20447;-71
2023/05/07 01:50:48;;;;;;;16.13;14.40;;;;;;;;;;5012941;28;20450;-72
2023/05/07 01:53:15;;;;;;;17.63;15.27;;;;;;;;;;5013370;28;20438;-71
2023/05/07 01:55:42;;;;;;;16.90;15.13;;;;;;;;;;5013507;28;20449;-72
2023/05/07 01:58:10;;;;;;;16.50;14.80;;;;;;;;;;5013277;28;20453;-71
2023/05/07 02:00:38;;;;;;;17.83;15.93;;;;;;;;;;5012729;28;20479;-72
2023/05/07 02:03:05;;;;;;;20.20;16.23;;;;;;;;;;5013368;28;20453;-71
2023/05/07 02:05:32;;;;;;;22.30;17.57;;;;;;;;;;5016203;28;20506;-72
2023/05/07 02:07:59;;;;;;;19.60;17.60;;;;;;;;;;5016579;28;20458;-71
2023/05/07 02:10:26;;;;;;;20.17;16.20;;;;;;;;;;5016238;28;20450;-72
2023/05/07 02:12:54;;;;;;;21.37;16.27;;;;;;;;;;5016327;28;21046;-72
2023/05/07 02:15:22;;;;;;;21.87;16.70;;;;;;;;;;5016542;28;20932;-72
2023/05/07 02:18:02;;;;;;;21.13;18.83;;;;;;;;;;5016830;28;20461;-71
2023/05/07 02:20:29;;;;;;;23.20;19.10;;;;;;;;;;5016350;28;20492;-71
2023/05/07 02:22:56;;;;;;;21.10;18.43;;;;;;;;;;5016167;28;20880;-71
2023/05/07 02:25:24;;;;;;;20.53;18.30;;;;;;;;;;5016595;28;20445;-72
2023/05/07 02:27:51;;;;;;;22.73;19.90;;;;;;;;;;5016001;28;21039;-72
2023/05/07 02:30:20;;;;;;;22.93;20.43;;;;;;;;;;5016700;28;20450;-71
2023/05/07 02:32:49;;;;;;;22.63;20.30;;;;;;;;;;5015762;28;20450;-71
2023/05/07 02:35:16;;;;;;;26.20;21.90;;;;;;;;;;5017059;28;20450;-71
2023/05/07 02:37:44;;;;;;;23.90;21.40;;;;;;;;;;5016019;28;20479;-71
2023/05/07 02:40:12;;;;;;;23.67;20.73;;;;;;;;;;5016051;28;20478;-71
2023/05/07 02:42:39;;;;;;;25.87;21.53;;;;;;;;;;5015754;28;20462;-71
2023/05/07 02:45:07;;;;;;;23.60;21.13;;;;;;;;;;5016174;28;20938;-71
2023/05/07 02:47:34;;;;;;;26.10;20.67;;;;;;;;;;5015976;28;20450;-72
2023/05/07 02:50:02;;;;;;;22.80;19.47;;;;;;;;;;5015967;28;20787;-71
2023/05/07 02:52:30;;;;;;;24.63;20.27;;;;;;;;;;5015882;28;20536;-71
2023/05/07 02:54:57;;;;;;;23.63;20.77;;;;;;;;;;5016142;28;20446;-72
2023/05/07 02:57:24;;;;;;;22.23;19.27;;;;;;;;;;5015742;28;20450;-72
2023/05/07 02:59:51;;;;;;;24.73;21.20;;;;;;;;;;5015416;28;20561;-71
2023/05/07 03:02:18;;;;;;;25.20;21.27;;;;;;;;;;5016021;28;20450;-71
2023/05/07 03:04:45;;;;;;;25.67;20.33;;;;;;;;;;5016007;28;20443;-71
2023/05/07 03:07:14;;;;;;;23.50;20.90;;;;;;;;;;5015894;28;20457;-71
2023/05/07 03:09:41;;;;;;;23.20;20.53;;;;;;;;;;5015422;28;20450;-71
2023/05/07 03:12:08;;;;;;;25.70;21.27;;;;;;;;;;5015079;28;20461;-72
2023/05/07 03:14:36;;;;;;;24.93;20.97;;;;;;;;;;5015212;28;20452;-71
2023/05/07 03:17:03;;;;;;;29.50;20.80;;;;;;;;;;5014618;28;20454;-71
2023/05/07 03:19:30;;;;;;;24.60;20.00;;;;;;;;;;5015060;28;20473;-71
2023/05/07 03:21:57;;;;;;;23.23;20.73;;;;;;;;;;5015567;28;20446;-72
2023/05/07 03:24:26;;;;;;;22.50;20.07;;;;;;;;;;5015551;28;20449;-71
2023/05/07 03:26:53;;;;;;;23.33;20.87;;;;;;;;;;5015544;28;20450;-71
2023/05/07 03:29:20;;;;;;;25.87;21.40;;;;;;;;;;5015755;28;20446;-71
2023/05/07 03:31:47;;;;;;;26.10;21.03;;;;;;;;;;5015053;28;20458;-70
2023/05/07 03:34:16;;;;;;;23.13;20.50;;;;;;;;;;5015116;28;20441;-70
2023/05/07 03:36:44;;;;;;;27.73;21.53;;;;;;;;;;5014834;28;20449;-70
2023/05/07 03:39:11;;;;;;;26.10;20.30;;;;;;;;;;5015028;28;20446;-71
2023/05/07 03:41:39;;;;;;;22.63;19.70;;;;;;;;;;5015141;28;20445;-71
2023/05/07 03:44:06;;;;;;;23.20;20.00;;;;;;;;;;5012361;28;20995;-70
2023/05/07 03:46:34;;;;;;;24.27;21.67;;;;;;;;;;5014254;28;20483;-71
2023/05/07 03:49:02;;;;;;;24.47;21.90;;;;;;;;;;5014625;28;20975;-71
2023/05/07 03:51:29;;;;;;;22.37;20.10;;;;;;;;;;5015153;28;20556;-70
2023/05/07 03:53:57;;;;;;;26.30;21.10;;;;;;;;;;5014396;28;20533;-70
2023/05/07 03:56:26;;;;;;;26.07;21.60;;;;;;;;;;5014582;28;20785;-71
2023/05/07 03:58:55;;;;;;;23.53;20.80;;;;;;;;;;5014474;28;20462;-71
2023/05/07 04:01:22;;;;;;;23.77;20.57;;;;;;;;;;5014668;28;20590;-70
2023/05/07 04:03:49;;;;;;;28.40;21.40;;;;;;;;;;5014537;28;20452;-70
2023/05/07 04:06:18;;;;;;;27.40;21.10;;;;;;;;;;5014456;28;20454;-70
2023/05/07 04:08:45;;;;;;;23.23;20.03;;;;;;;;;;5013886;28;20508;-71
2023/05/07 04:11:12;;;;;;;22.50;20.10;;;;;;;;;;5014186;28;20545;-71
2023/05/07 04:13:39;;;;;;;22.73;20.33;;;;;;;;;;5002663;28;20446;-70
2023/05/07 04:16:08;;;;;;;24.93;22.23;;;;;;;;;;4994662;28;20452;-70
2023/05/07 04:18:35;;;;;;;25.73;21.47;;;;;;;;;;4994092;28;20452;-71
2023/05/07 04:21:02;;;;;;;24.87;20.53;;;;;;;;;;4994620;28;20497;-70
2023/05/07 04:23:29;;;;;;;21.83;19.43;;;;;;;;;;4994341;28;20456;-71
2023/05/07 04:25:57;;;;;;;27.30;20.90;;;;;;;;;;4994491;28;20527;-71
2023/05/07 04:28:24;;;;;;;27.03;24.13;;;;;;;;;;4994265;28;20447;-70
2023/05/07 04:30:51;;;;;;;26.60;21.17;;;;;;;;;;4994438;28;20451;-70
2023/05/07 04:33:20;;;;;;;24.77;21.10;;;;;;;;;;4994333;28;20443;-70
2023/05/07 04:35:47;;;;;;;23.23;20.73;;;;;;;;;;4994543;28;20442;-71
2023/05/07 04:38:14;;;;;;;25.10;21.77;;;;;;;;;;4994484;28;20475;-71
2023/05/07 04:40:42;;;;;;;23.70;20.40;;;;;;;;;;4994153;28;20483;-70
2023/05/07 04:43:09;;;;;;;23.70;21.20;;;;;;;;;;4994408;28;20442;-70
2023/05/07 04:45:36;;;;;;;22.83;20.53;;;;;;;;;;4993930;28;20443;-71
2023/05/07 04:48:04;;;;;;;24.40;19.03;;;;;;;;;;4993954;28;20454;-70
2023/05/07 04:50:32;;;;;;;27.13;21.90;;;;;;;;;;4993657;28;20455;-71
2023/05/07 04:53:00;;;;;;;27.13;21.87;;;;;;;;;;4994012;28;20453;-71
2023/05/07 04:55:27;;;;;;;21.53;18.57;;;;;;;;;;4994313;28;20447;-70
2023/05/07 04:57:54;;;;;;;29.10;22.17;;;;;;;;;;4993952;28;20454;-70
2023/05/07 05:00:22;;;;;;;22.57;20.20;;;;;;;;;;4993912;28;20569;-71
2023/05/07 05:02:49;;;;;;;24.53;20.90;;;;;;;;;;4993939;28;20872;-70
2023/05/07 05:05:17;;;;;;;22.80;19.77;;;;;;;;;;4994008;28;20451;-71
2023/05/07 05:07:45;;;;;;;24.70;19.63;;;;;;;;;;4994007;28;20456;-70
2023/05/07 05:10:12;;;;;;;28.80;21.60;;;;;;;;;;4993981;28;20556;-70
2023/05/07 05:12:40;;;;;;;23.73;20.50;;;;;;;;;;4993322;28;20455;-71
2023/05/07 05:15:07;;;;;;;23.47;20.77;;;;;;;;;;4993961;28;20475;-71
2023/05/07 05:17:36;;;;;;;24.10;21.60;;;;;;;;;;4993643;28;20547;-71
2023/05/07 05:20:03;;;;;;;24.40;20.30;;;;;;;;;;4993678;28;20504;-70
2023/05/07 05:22:31;;;;;;;23.70;19.60;;;;;;;;;;4993796;28;20491;-71
2023/05/07 05:25:00;;;;;;;23.57;21.03;;;;;;;;;;4993832;28;20464;-71
2023/05/07 05:27:27;;;;;;;22.03;19.53;;;;;;;;;;4993518;28;20458;-70
2023/05/07 05:29:55;;;;;;;22.33;19.93;;;;;;;;;;4993360;28;20477;-71
2023/05/07 05:32:23;;;;;;;25.00;21.70;;;;;;;;;;4993712;28;20447;-71
2023/05/07 05:34:50;;;;;;;24.37;19.03;;;;;;;;;;4993602;28;20450;-71
2023/05/07 05:37:18;;;;;;;23.20;20.70;;;;;;;;;;4993376;28;20624;-71
2023/05/07 05:39:45;;;;;;;24.17;20.13;;;;;;;;;;4995114;28;20458;-70
2023/05/07 05:42:13;;;;;;;22.00;19.63;;;;;;;;;;4997798;28;20473;-71
2023/05/07 05:44:40;;;;;;;24.77;20.27;;;;;;;;;;4997838;28;20496;-71
2023/05/07 05:47:08;;;;;;;25.87;20.77;;;;;;;;;;4997817;28;20800;-71
2023/05/07 05:49:35;;;;;;;23.37;19.67;;;;;;;;;;4997123;28;20450;-70
2023/05/07 05:52:02;;;;;;;23.83;19.40;;;;;;;;;;4997210;28;20458;-70
2023/05/07 05:54:29;;;;;;;26.43;21.60;;;;;;;;;;5014471;28;20463;-71
2023/05/07 05:56:56;;;;;;;23.37;20.90;;;;;;;;;;5016916;28;20446;-70
2023/05/07 05:59:25;;;;;;;23.40;20.50;;;;;;;;;;5016449;28;20446;-70
2023/05/07 06:01:52;;;;;;;23.13;20.37;;;;;;;;;;5016365;28;20987;-71
2023/05/07 06:04:19;;;;;;;22.43;20.10;;;;;;;;;;5016786;28;20435;-70
2023/05/07 06:06:47;;;;;;;22.20;19.80;;;;;;;;;;5016496;28;20454;-71
2023/05/07 06:09:14;;;;;;;26.10;19.90;;;;;;;;;;5016530;28;20450;-70
2023/05/07 06:11:41;;;;;;;27.00;21.20;;;;;;;;;;5016611;28;20451;-69
2023/05/07 06:14:08;;;;;;;24.63;20.40;;;;;;;;;;5016497;28;20438;-70
2023/05/07 06:16:37;;;;;;;24.60;20.90;;;;;;;;;;5016097;28;20442;-70
2023/05/07 06:19:05;;;;;;;21.43;19.23;;;;;;;;;;5016372;28;20450;-70
2023/05/07 06:21:32;;;;;;;26.10;21.73;;;;;;;;;;5016413;28;20820;-70
2023/05/07 06:23:59;;;;;;;30.10;21.60;;;;;;;;;;5016230;28;20473;-70
2023/05/07 06:26:26;;;;;;;23.80;21.20;;;;;;;;;;5016222;28;20449;-71
2023/05/07 06:28:53;;;;;;;23.90;20.30;;;;;;;;;;5016008;28;20751;-71
2023/05/07 06:31:21;;;;;;;23.83;19.30;;;;;;;;;;5016271;28;20454;-70
2023/05/07 06:33:50;;;;;;;23.63;20.63;;;;;;;;;;5015786;28;20532;-71
2023/05/07 06:36:17;;;;;;;26.80;22.03;;;;;;;;;;5016060;28;20441;-70
2023/05/07 06:38:44;;;;;;;22.83;20.47;;;;;;;;;;5016083;28;20880;-71
2023/05/07 06:41:11;;;;;;;24.60;19.97;;;;;;;;;;5015570;28;20479;-70
2023/05/07 06:43:38;;;;;;;23.60;20.10;;;;;;;;;;5015790;28;20958;-70
2023/05/07 06:46:06;;;;;;;23.33;20.47;;;;;;;;;;5015876;28;20453;-71
2023/05/07 06:48:33;;;;;;;22.97;20.43;;;;;;;;;;5015514;28;20924;-70
2023/05/07 06:51:01;;;;;;;24.97;21.60;;;;;;;;;;5015610;28;20466;-70
2023/05/07 06:53:30;;;;;;;24.20;21.70;;;;;;;;;;5015518;28;20948;-70
2023/05/07 06:55:57;;;;;;;22.17;19.17;;;;;;;;;;5015816;28;20447;-70
2023/05/07 06:58:24;;;;;;;25.27;20.20;;;;;;;;;;5015405;28;20484;-72
2023/05/07 07:00:52;;;;;;;21.77;19.17;;;;;;;;;;5015516;28;20477;-72
2023/05/07 07:03:19;;;;;;;26.73;20.53;;;;;;;;;;5015851;28;20445;-72
2023/05/07 07:05:46;;;;;;;26.83;21.27;;;;;;;;;;5015681;28;20472;-72
2023/05/07 07:08:16;;;;;;;23.50;19.80;;;;;;;;;;5015963;28;20482;-72
2023/05/07 07:10:44;;;;;;;27.33;20.83;;;;;;;;;;5015054;28;20441;-72
2023/05/07 07:13:11;;;;;;;24.73;21.17;;;;;;;;;;5015501;28;20481;-72
2023/05/07 07:15:38;;;;;;;24.23;20.80;;;;;;;;;;5015572;28;20461;-73
2023/05/07 07:18:05;;;;;;;25.57;21.63;;;;;;;;;;5015060;28;20443;-76
2023/05/07 07:20:33;;;;;;;28.93;23.00;;;;;;;;;;5015174;28;20442;-73
2023/05/07 07:23:00;;;;;;;30.20;22.70;;;;;;;;;;5015447;28;20438;-71
2023/05/07 07:25:29;;;;;;;23.97;18.93;;;;;;;;;;5015236;28;20447;-72
2023/05/07 07:27:56;;;;;;;24.90;22.17;;;;;;;;;;5014727;28;20480;-72
2023/05/07 07:30:23;;;;;;;29.17;21.40;;;;;;;;;;5014951;28;20496;-70
2023/05/07 07:32:52;;;;;;;24.50;20.63;;;;;;;;;;5014921;28;20455;-72
2023/05/07 07:35:19;;;;;;;23.27;20.77;;;;;;;;;;5014860;28;20443;-72
2023/05/07 07:37:47;;;;;;;24.33;21.73;;;;;;;;;;5014583;28;20937;-72
2023/05/07 07:40:14;;;;;;;37.60;30.13;;;;;;;;;;5014492;28;20992;-72
2023/05/07 07:42:43;;;;;;;25.77;23.03;;;;;;;;;;5014700;28;20495;-72
2023/05/07 07:45:10;;;;;;;23.70;20.87;;;;;;;;;;5014491;28;20553;-72
2023/05/07 07:47:37;;;;;;;25.40;21.40;;;;;;;;;;5014756;28;20486;-71
2023/05/07 07:50:05;;;;;;;23.20;20.43;;;;;;;;;;5014443;28;20446;-73
2023/05/07 07:52:32;;;;;;;23.73;20.50;;;;;;;;;;5014316;28;20458;-72
2023/05/07 07:54:59;;;;;;;22.73;20.20;;;;;;;;;;5014760;28;20515;-71
2023/05/07 07:57:27;;;;;;;21.13;18.87;;;;;;;;;;5014428;28;20488;-72
2023/05/07 07:59:55;;;;;;;26.57;21.40;;;;;;;;;;5014635;28;20481;-71
2023/05/07 08:02:22;;;;;;;22.07;19.63;;;;;;;;;;5013654;28;20486;-72
2023/05/07 08:04:50;;;;;;;26.53;22.43;;;;;;;;;;5014598;28;20915;-72
2023/05/07 08:07:18;;;;;;;25.50;21.60;;;;;;;;;;5014625;28;20446;-72
2023/05/07 08:09:45;;;;;;;25.30;20.33;;;;;;;;;;5013222;28;20459;-72
2023/05/07 08:12:13;;;;;;;24.70;21.30;;;;;;;;;;5014281;28;20771;-72
2023/05/07 08:14:40;;;;;;;22.47;18.93;;;;;;;;;;5014070;28;20447;-72
2023/05/07 08:17:10;;;;;;;22.83;20.57;;;;;;;;;;5014101;28;20453;-71
2023/05/07 08:19:37;;;;;;;23.70;20.10;;;;;;;;;;5014261;28;20449;-72
2023/05/07 08:22:05;;;;;;;25.97;20.67;;;;;;;;;;5014205;28;20477;-72
2023/05/07 08:24:32;;;;;;;29.53;23.60;;;;;;;;;;5014171;28;20491;-72
2023/05/07 08:26:59;;;;;;;23.50;20.90;;;;;;;;;;5013964;28;20451;-72
2023/05/07 08:29:27;;;;;;;30.67;26.10;;;;;;;;;;5014350;28;20796;-72
2023/05/07 08:31:54;;;;;;;26.43;22.33;;;;;;;;;;5013782;28;20503;-72
2023/05/07 08:34:23;;;;;;;22.23;19.80;;;;;;;;;;5013770;28;20958;-72
2023/05/07 08:36:50;;;;;;;23.83;19.57;;;;;;;;;;5013384;28;20443;-72
2023/05/07 08:39:17;;;;;;;22.97;19.07;;;;;;;;;;5014113;28;20436;-72
2023/05/07 08:41:46;;;;;;;25.73;21.23;;;;;;;;;;5013577;28;20485;-72
2023/05/07 08:44:13;;;;;;;26.37;21.37;;;;;;;;;;5013781;28;20469;-72
2023/05/07 08:46:41;;;;;;;23.53;19.90;;;;;;;;;;5013894;28;20463;-71
2023/05/07 08:49:09;;;;;;;30.07;23.93;;;;;;;;;;5013358;28;20450;-71
2023/05/07 08:51:37;;;;;;;22.57;20.17;;;;;;;;;;5013217;28;20443;-72
2023/05/07 08:54:05;;;;;;;23.63;19.33;;;;;;;;;;5013512;28;20452;-72
2023/05/07 08:56:32;;;;;;;24.93;19.70;;;;;;;;;;5013843;28;20488;-72
2023/05/07 08:58:59;;;;;;;25.00;19.77;;;;;;;;;;5013541;28;20843;-72
2023/05/07 09:01:26;;;;;;;25.27;19.63;;;;;;;;;;5013620;28;20485;-72
2023/05/07 09:03:55;;;;;;;19.87;17.60;;;;;;;;;;5013254;28;20451;-72
2023/05/07 09:06:22;;;;;;;24.20;19.93;;;;;;;;;;5013364;28;20443;-72
2023/05/07 09:08:54;;;;;;;24.20;18.97;;;;;;;;;;5013881;28;20941;-72
2023/05/07 09:11:23;;;;;;;25.10;20.70;;;;;;;;;;5012957;28;20449;-72
2023/05/07 09:13:50;;;;;;;23.53;19.33;;;;;;;;;;5013725;28;20435;-71
2023/05/07 09:16:17;;;;;;;22.07;18.90;;;;;;;;;;5017050;28;20455;-73
2023/05/07 09:18:46;;;;;;;22.73;19.07;;;;;;;;;;5017699;28;20609;-72
2023/05/07 09:21:16;;;;;;;19.73;17.57;;;;;;;;;;5017610;28;20447;-72
2023/05/07 09:23:43;;;;;;;22.53;19.03;;;;;;;;;;5017716;28;20505;-72
2023/05/07 09:26:12;;;;;;;21.10;19.00;;;;;;;;;;5017361;28;20530;-72
2023/05/07 09:28:41;;;;;;;20.37;18.30;;;;;;;;;;5017248;28;20481;-72
2023/05/07 09:31:13;;;;;;;20.40;18.00;;;;;;;;;;5017187;28;20493;-72
2023/05/07 09:33:40;;;;;;;21.10;17.50;;;;;;;;;;5017258;28;20433;-72
2023/05/07 09:36:08;;;;;;;20.90;18.17;;;;;;;;;;5017108;28;20435;-72
2023/05/07 09:38:36;;;;;;;25.53;19.17;;;;;;;;;;5017246;28;20480;-72
2023/05/07 09:41:04;;;;;;;19.07;17.17;;;;;;;;;;5016778;28;20966;-72
2023/05/07 09:43:35;;;;;;;22.93;19.63;;;;;;;;;;5016975;28;20446;-72
2023/05/07 09:46:04;;;;;;;28.53;25.50;;;;;;;;;;5016745;28;20486;-71
2023/05/07 09:48:32;;;;;;;23.70;19.40;;;;;;;;;;5016584;28;20442;-72
2023/05/07 09:51:03;;;;;;;22.53;19.23;;;;;;;;;;5016777;28;20453;-72
2023/05/07 09:53:31;;;;;;;18.93;16.03;;;;;;;;;;5016605;28;20441;-72
2023/05/07 09:55:59;;;;;;;23.13;18.93;;;;;;;;;;5016499;28;20928;-73
2023/05/07 09:58:27;;;;;;;20.47;18.27;;;;;;;;;;5016891;28;21058;-72
2023/05/07 10:00:56;;;;;;;21.50;19.20;;;;;;;;;;5016470;28;20448;-72
2023/05/07 10:03:24;;;;;;;21.47;18.60;;;;;;;;;;5016565;28;20477;-72
2023/05/07 10:05:52;;;;;;;21.00;18.80;;;;;;;;;;5016630;28;20440;-72
2023/05/07 10:08:19;;;;;;;21.37;18.50;;;;;;;;;;5016194;28;20486;-72
2023/05/07 10:10:47;;;;;;;20.23;18.03;;;;;;;;;;5016357;28;20435;-72
2023/05/07 10:13:14;;;;;;;21.60;18.13;;;;;;;;;;5016545;28;20451;-72
2023/05/07 10:15:42;;;;;;;20.10;18.10;;;;;;;;;;5016461;28;20457;-72
2023/05/07 10:18:10;;;;;;;20.17;18.07;;;;;;;;;;5016082;28;20442;-73
2023/05/07 10:20:38;;;;;;;19.40;17.23;;;;;;;;;;5016393;28;20940;-72
2023/05/07 10:23:06;;;;;;;20.10;16.50;;;;;;;;;;5016457;28;20478;-72
2023/05/07 10:25:34;;;;;;;19.97;17.90;;;;;;;;;;5015593;28;20465;-72
2023/05/07 10:28:02;;;;;;;18.27;16.33;;;;;;;;;;5015698;28;20463;-73
2023/05/07 10:30:36;;;;;;;20.60;17.63;;;;;;;;;;5016189;28;20450;-70
2023/05/07 10:33:05;;;;;;;18.30;16.30;;;;;;;;;;5015810;28;20927;-72
2023/05/07 10:35:40;;;;;;;18.87;17.00;;;;;;;;;;5016282;28;20487;-72
2023/05/07 10:38:08;;;;;;;24.63;17.10;;;;;;;;;;5015962;28;20494;-72
2023/05/07 10:40:35;;;;;;;19.17;15.77;;;;;;;;;;5015887;28;20801;-73
2023/05/07 10:43:04;;;;;;;19.53;15.70;;;;;;;;;;5015466;28;20980;-73
2023/05/07 10:45:32;;;;;;;15.87;14.27;;;;;;;;;;5016077;28;20470;-72
2023/05/07 10:48:09;;;;;;;16.90;14.10;;;;;;;;;;5015620;28;20447;-72
2023/05/07 10:50:38;;;;;;;18.27;16.37;;;;;;;;;;5016136;28;20446;-72
2023/05/07 10:53:28;;;;;;;20.10;17.83;;;;;;;;;;5015334;28;20442;-72
2023/05/07 10:56:14;;;;;;;16.40;14.80;;;;;;;;;;5015645;28;20453;-72
2023/05/07 10:58:41;;;;;;;16.20;14.50;;;;;;;;;;5015662;28;20537;-72
2023/05/07 11:01:09;;;;;;;17.10;14.83;;;;;;;;;;5015646;28;20443;-72
2023/05/07 11:03:37;;;;;;;15.20;13.70;;;;;;;;;;5015469;28;20553;-72
2023/05/07 11:06:15;;;;;;;16.00;14.50;;;;;;;;;;5015534;28;20447;-72
2023/05/07 11:08:55;;;;;;;15.17;13.67;;;;;;;;;;5016196;28;20451;-72
2023/05/07 11:11:42;;;;;;;17.87;16.17;;;;;;;;;;5015385;28;20451;-72
2023/05/07 11:14:09;;;;;;;15.53;13.93;;;;;;;;;;5015099;28;20446;-72
2023/05/07 11:16:37;;;;;;;17.40;15.70;;;;;;;;;;5015382;28;20466;-72
2023/05/07 11:19:05;;;;;;;15.63;14.13;;;;;;;;;;5015129;28;20446;-72
2023/05/07 11:21:40;;;;;;;14.13;12.17;;;;;;;;;;5015370;28;20444;-72
2023/05/07 11:24:08;;;;;;;16.90;13.30;;;;;;;;;;5015109;28;20493;-72
2023/05/07 11:26:46;;;;;;;15.37;13.60;;;;;;;;;;5015207;28;20796;-72
2023/05/07 11:29:14;;;;;;;16.97;13.77;;;;;;;;;;5014781;28;20983;-72
2023/05/07 11:31:41;;;;;;;15.47;13.97;;;;;;;;;;5015345;28;20450;-72
2023/05/07 11:34:09;;;;;;;15.10;13.50;;;;;;;;;;5015001;28;20450;-72
2023/05/07 11:36:38;;;;;;;15.17;12.23;;;;;;;;;;5014481;28;20447;-72
2023/05/07 11:39:07;;;;;;;15.97;12.93;;;;;;;;;;5013771;28;20490;-72
2023/05/07 11:41:37;;;;;;;14.50;11.93;;;;;;;;;;5014934;28;20500;-72
2023/05/07 11:44:04;;;;;;;14.73;13.23;;;;;;;;;;5014468;28;20561;-72
2023/05/07 11:46:32;;;;;;;12.83;11.63;;;;;;;;;;5014804;28;20440;-72
2023/05/07 11:48:59;;;;;;;13.73;12.33;;;;;;;;;;5014648;28;20447;-72
2023/05/07 11:51:27;;;;;;;13.90;12.50;;;;;;;;;;5014525;28;20453;-72
2023/05/07 11:53:54;;;;;;;12.37;11.10;;;;;;;;;;5014547;28;20505;-71
2023/05/07 11:56:23;;;;;;;14.13;10.77;;;;;;;;;;5014560;28;20474;-72
2023/05/07 11:58:51;;;;;;;11.37;9.93;;;;;;;;;;5014641;28;20446;-71
2023/05/07 12:01:19;;;;;;;17.43;13.23;;;;;;;;;;5014013;28;20443;-71
2023/05/07 12:03:46;;;;;;;11.27;10.20;;;;;;;;;;5014375;28;20479;-72
2023/05/07 12:06:14;;;;;;;11.53;10.43;;;;;;;;;;5014063;28;20443;-72
2023/05/07 12:08:42;;;;;;;14.67;13.27;;;;;;;;;;5014405;28;20443;-71
2023/05/07 12:11:11;;;;;;;10.87;9.77;;;;;;;;;;5014164;28;20453;-71
2023/05/07 12:13:39;;;;;;;11.27;8.80;;;;;;;;;;5014103;28;20889;-72
2023/05/07 12:16:08;;;;;;;10.70;9.30;;;;;;;;;;5014580;28;20436;-71
2023/05/07 12:18:36;;;;;;;10.47;9.47;;;;;;;;;;5014076;28;20506;-72
2023/05/07 12:21:03;;;;;;;13.53;11.43;;;;;;;;;;5013788;28;20447;-72
2023/05/07 12:23:30;;;;;;;11.47;10.43;;;;;;;;;;5013887;28;20502;-71
2023/05/07 12:25:58;;;;;;;11.90;10.77;;;;;;;;;;5013954;28;20446;-72
2023/05/07 12:28:25;;;;;;;10.63;9.63;;;;;;;;;;5014074;28;20440;-72
2023/05/07 12:30:54;;;;;;;10.20;9.20;;;;;;;;;;5013862;28;20588;-72
2023/05/07 12:33:30;;;;;;;8.57;7.70;;;;;;;;;;5013791;28;20457;-72
2023/05/07 12:35:58;;;;;;;10.03;9.03;;;;;;;;;;5013714;28;20439;-72
2023/05/07 12:38:25;;;;;;;11.70;10.50;;;;;;;;;;5013250;28;21010;-72
2023/05/07 12:40:55;;;;;;;10.30;9.30;;;;;;;;;;5013603;28;20787;-72
2023/05/07 12:43:22;;;;;;;8.97;8.07;;;;;;;;;;5013645;28;20491;-72
2023/05/07 12:45:50;;;;;;;10.43;8.83;;;;;;;;;;5013347;28;20479;-72
2023/05/07 12:48:20;;;;;;;10.37;8.97;;;;;;;;;;5013168;28;20458;-72
2023/05/07 12:50:50;;;;;;;11.20;10.10;;;;;;;;;;5013283;28;20451;-71
2023/05/07 12:53:18;;;;;;;10.30;9.30;;;;;;;;;;5013254;28;20939;-72
2023/05/07 12:55:45;;;;;;;9.00;7.90;;;;;;;;;;5013485;28;20443;-71
2023/05/07 12:58:17;;;;;;;9.23;8.23;;;;;;;;;;5013680;28;20458;-71
2023/05/07 13:00:45;;;;;;;10.97;9.87;;;;;;;;;;5013439;28;20451;-72
2023/05/07 13:03:12;;;;;;;11.97;9.77;;;;;;;;;;5013246;28;20514;-72
2023/05/07 13:05:41;;;;;;;15.90;14.20;;;;;;;;;;5013416;28;20446;-72
2023/05/07 13:08:09;;;;;;;12.30;9.40;;;;;;;;;;5013579;28;20447;-71
2023/05/07 13:10:36;;;;;;;15.97;10.37;;;;;;;;;;5013141;28;20455;-72
2023/05/07 13:13:04;;;;;;;11.40;10.20;;;;;;;;;;5013069;28;20451;-71
2023/05/07 13:15:31;;;;;;;10.77;9.83;;;;;;;;;;5013222;28;20479;-72
2023/05/07 13:17:58;;;;;;;11.97;10.77;;;;;;;;;;5013292;28;20463;-72
2023/05/07 13:20:26;;;;;;;12.13;10.93;;;;;;;;;;5013291;28;20435;-71
2023/05/07 13:22:54;;;;;;;12.17;10.80;;;;;;;;;;5013398;28;20483;-72
2023/05/07 13:25:21;;;;;;;11.03;9.90;;;;;;;;;;5012792;28;20936;-72
2023/05/07 13:27:49;;;;;;;10.13;9.00;;;;;;;;;;5012949;28;20954;-72
2023/05/07 13:30:16;;;;;;;11.13;10.00;;;;;;;;;;5013158;28;20454;-71
2023/05/07 13:32:43;;;;;;;11.00;9.80;;;;;;;;;;5013239;28;20480;-71
2023/05/07 13:35:11;;;;;;;11.93;10.27;;;;;;;;;;5013093;28;20447;-72
2023/05/07 13:37:38;;;;;;;11.80;10.63;;;;;;;;;;5013085;28;20502;-72
2023/05/07 13:40:07;;;;;;;10.50;9.60;;;;;;;;;;5013101;28;20539;-72
2023/05/07 13:42:34;;;;;;;16.50;9.33;;;;;;;;;;5013258;28;20801;-72
2023/05/07 13:45:02;;;;;;;12.67;10.10;;;;;;;;;;5013227;28;20447;-72
2023/05/07 13:47:30;;;;;;;9.77;8.90;;;;;;;;;;5012733;28;20453;-72
2023/05/07 13:49:57;;;;;;;10.10;9.10;;;;;;;;;;5012928;28;20783;-72
2023/05/07 13:52:24;;;;;;;10.93;9.83;;;;;;;;;;5013126;28;20445;-72
2023/05/07 13:54:52;;;;;;;10.80;9.70;;;;;;;;;;5012763;28;20445;-72
2023/05/07 13:57:21;;;;;;;11.37;8.97;;;;;;;;;;5012754;28;20443;-72
2023/05/07 13:59:48;;;;;;;8.60;7.90;;;;;;;;;;5012802;28;20460;-71
2023/05/07 14:02:15;;;;;;;9.13;8.23;;;;;;;;;;5016282;28;20451;-72
2023/05/07 14:04:42;;;;;;;11.97;8.57;;;;;;;;;;5016464;28;20534;-71
2023/05/07 14:07:10;;;;;;;10.10;9.10;;;;;;;;;;5016008;28;20446;-71
2023/05/07 14:09:37;;;;;;;10.17;8.60;;;;;;;;;;5016171;28;20872;-71
2023/05/07 14:12:04;;;;;;;10.60;8.80;;;;;;;;;;5016358;28;20469;-71
2023/05/07 14:14:33;;;;;;;9.50;8.50;;;;;;;;;;5016323;28;20505;-71
2023/05/07 14:17:05;;;;;;;9.00;7.57;;;;;;;;;;5016228;28;20467;-72
2023/05/07 14:19:32;;;;;;;8.70;7.80;;;;;;;;;;5015798;28;20463;-73
2023/05/07 14:21:59;;;;;;;8.97;7.47;;;;;;;;;;5016030;28;20445;-72
2023/05/07 14:24:26;;;;;;;8.00;7.30;;;;;;;;;;5015794;28;20481;-72
2023/05/07 14:26:54;;;;;;;9.23;8.10;;;;;;;;;;5015795;28;20455;-72